Terminal Aerodrome Forecast
Issued by NWS

Home | Current Version | Previous Version | Text Only | Print | Product List | Glossary On
Versions: 1 2 3 4 5 6 7 8 9 10 11 12 13 14 15 16
689
FTUS45 KTFX 312328
TAFCTB
TAF
KCTB 312328Z 0100/0124 VRB06KT P6SM SCT070 SCT180
     FM011900 25014G25KT P6SM BKN180=

USA.gov is the U.S. government's official web portal to all federal, state and local government web resources and services.